Historyczne dane pomiarowe

Dodano dane terminowe – wersja testowa.

Dane z okresu 1951-2019

Wersja bazy: 1.34 [2019-03-16, lista zmian], aktualizacja planowana na 2019-04-15

Dane meteo z obszaru Polski uzyskane na podstawie danych udostępnionych przez Instytut Meteorologii i Gospodarki Wodnej – Państwowy Instytut Badawczy.

 

Wybierz Datę:    

       

TemperaturaWilgotnośćZachmurzenieWiatrCiśnienieWidzialnośćZjawiska
 Data    tng td wb rh cc ccl cl cm ch dir g1 g2 mslp ppp      
1999-07-29 00:00:00 5.1--- 4.8 5.098wxwxwxwxwx6wx--- 803.3 0.0---wx
1999-07-29 01:00:00 5.0--- 4.8 4.998wxwxwxwx7wx--- 803.0----wx
1999-07-29 02:00:00 4.4--- 4.0 4.297wxwxwxwx7wx--- 802.4----wx
1999-07-29 03:00:00 4.5--- 4.5 4.5100wxwx7wx--- 802.5----wx
1999-07-29 04:00:00 4.4--- 4.4 4.4100wxwx8wx--- 802.6----wxw1
1999-07-29 05:00:00 4.3--- 4.3 4.3100wxwx9wx--- 802.4----wxw1
1999-07-29 06:00:00 4.5--- 4.5 4.5100wxwx10wx--- 802.6 0.0---wx
1999-07-29 07:00:00 4.5--- 3.6 4.193wxwxwxwx11wx18-- 802.8----wx
1999-07-29 08:00:00 4.5--- 4.3 4.498wxwxwx10wx16-- 802.9----wx
1999-07-29 09:00:00 5.1--- 5.1 5.1100wxwxwx8wx--- 803.3----wxw1
1999-07-29 10:00:00 5.3--- 5.3 5.3100wxwx7wx13-- 803.3----wxw1
1999-07-29 11:00:00 5.5--- 5.3 5.498wxwxwx8wx13-- 803.4----wx
1999-07-29 12:00:00 5.6--- 5.6 5.6100wxwxwx7wx--- 803.3 0.1---wxw1
1999-07-29 13:00:00 5.6--- 5.6 5.6100wxwxwx7wx--- 803.4----wxw1
1999-07-29 14:00:00 6.0--- 6.0 6.0100wxwxwx8wx16-- 803.1----wxw1
1999-07-29 15:00:00 5.9--- 5.9 5.9100wxwx10wx--- 802.8----wxw1
1999-07-29 16:00:00 5.7--- 5.7 5.7100wxwx10wx--- 802.7----wxw1
1999-07-29 17:00:00 5.4--- 5.4 5.4100wxwx7wx--- 802.8----wxw1
1999-07-29 18:00:00 4.7--- 4.5 4.698wxwxwx7wx--- 802.9 0.0---wx
1999-07-29 19:00:00 4.4--- 4.0 4.297wxwxwx8wx14-- 803.0----wx
1999-07-29 20:00:00 4.4--- 4.4 4.4100wxwx9wx--- 803.0----wx
1999-07-29 21:00:00 4.3--- 4.3 4.3100wxwx9wx14-- 802.6----wx
1999-07-29 22:00:00 4.3--- 4.3 4.3100wxwx9wx--- 802.6----wxw1
1999-07-29 23:00:00 4.3--- 4.3 4.3100wxwx9wx--- 802.1----wxw1

 

Źródłem pochodzenia danych jest Instytut Meteorologii i Gospodarki Wodnej – Państwowy Instytut Badawczy. Dane Instytutu Meteorologii i Gospodarki Wodnej – Państwowego Instytutu Badawczego zostały przetworzone.

Dane źródłowe można odnaleźć na stronie https://dane.imgw.pl